createdAt,value
2016-04-21T20:01:33.207Z,101383
2016-04-21T20:01:45.957Z,101389
2016-04-21T20:01:58.911Z,101386
2016-04-21T20:02:11.835Z,101392
2016-04-21T20:02:24.679Z,101389
2016-04-21T20:02:37.460Z,101383
2016-04-21T20:02:50.429Z,101395
2016-04-21T20:03:03.367Z,101392
2016-04-21T20:03:16.135Z,101392
2016-04-21T20:03:29.135Z,101399
2016-04-21T20:03:42.135Z,101383
2016-04-21T20:03:54.870Z,101383
2016-04-21T20:04:07.810Z,101398
2016-04-21T20:04:20.795Z,101386
2016-04-21T20:04:33.576Z,101392
2016-04-21T20:04:46.420Z,101395
2016-04-21T20:04:59.263Z,101386
2016-04-21T20:05:12.328Z,101392
2016-04-21T20:05:25.125Z,101386
2016-04-21T20:05:37.937Z,101392
2016-04-21T20:05:50.906Z,101389
2016-04-21T20:06:03.812Z,101383
2016-04-21T20:06:16.549Z,101395
2016-04-21T20:06:29.564Z,101386
2016-04-21T20:06:42.549Z,101395
2016-04-21T20:06:55.299Z,101395
2016-04-21T20:07:08.271Z,101399
2016-04-21T20:07:21.240Z,101405
2016-04-21T20:07:34.068Z,101399
2016-04-21T20:07:46.990Z,101399
2016-04-21T20:07:59.756Z,101380
2016-04-21T20:08:12.726Z,101392
2016-04-21T20:08:25.680Z,101395
2016-04-21T20:08:38.430Z,101389
2016-04-21T20:08:51.445Z,101380
2016-04-21T20:09:04.430Z,101389
2016-04-21T20:09:17.229Z,101383
2016-04-21T20:09:30.058Z,101386
2016-04-21T20:09:43.073Z,101383
2016-04-21T20:09:55.854Z,101383
2016-04-21T20:10:08.654Z,101389
2016-04-21T20:10:21.623Z,101392
2016-04-21T20:10:34.436Z,101392
2016-04-21T20:10:47.451Z,101389
2016-04-21T20:11:00.295Z,101386
2016-04-21T20:11:13.095Z,101383
2016-04-21T20:11:26.048Z,101389
2016-04-21T20:11:38.985Z,101389
2016-04-21T20:11:51.782Z,101377
2016-04-21T20:12:04.814Z,101386
2016-04-21T20:12:17.799Z,101398
2016-04-21T20:12:30.549Z,101386
2016-04-21T20:12:43.518Z,101386
2016-04-21T20:12:56.502Z,101386
2016-04-21T20:13:09.194Z,101392
2016-04-21T20:13:22.865Z,101380
2016-04-21T20:13:37.834Z,101386
2016-04-21T20:13:54.209Z,101386
2016-04-21T20:14:07.162Z,101395
2016-04-21T20:14:20.102Z,101377
2016-04-21T20:14:32.883Z,101392
2016-04-21T20:14:45.742Z,101380
2016-04-21T20:14:58.758Z,101377
2016-04-21T20:15:11.574Z,101377
2016-04-21T20:15:24.355Z,101377
2016-04-21T20:15:37.402Z,101374
2016-04-21T20:15:51.480Z,101373
2016-04-21T20:16:04.464Z,101395
2016-04-21T20:16:17.280Z,101389
2016-04-21T20:16:30.077Z,101386
2016-04-21T20:16:43.045Z,101389
2016-04-21T20:16:56.077Z,101373
2016-04-21T20:17:08.873Z,101386
2016-04-21T20:17:21.860Z,101377
2016-04-21T20:17:34.844Z,101386
2016-04-21T20:17:47.594Z,101383
2016-04-21T20:18:00.516Z,101389
2016-04-21T20:18:13.503Z,101395
2016-04-21T20:18:26.300Z,101389
2016-04-21T20:18:39.800Z,101380
2016-04-21T20:18:52.644Z,101373
2016-04-21T20:19:05.628Z,101380
2016-04-21T20:32:10.885Z,101378
2016-04-21T20:32:23.713Z,101381
2016-04-21T20:32:36.495Z,101368
2016-04-21T20:32:49.432Z,101374
2016-04-21T20:33:02.370Z,101374
2016-04-21T20:33:15.107Z,101368
2016-04-21T20:33:28.091Z,101387
2016-04-21T20:33:41.076Z,101381
2016-04-21T20:33:53.935Z,101381
2016-04-21T20:34:06.748Z,101372
2016-04-21T20:34:19.593Z,101375
2016-04-21T20:34:32.625Z,101368
2016-04-21T20:34:45.390Z,101375
2016-04-21T20:34:58.187Z,101381
2016-04-21T20:35:11.205Z,101372
2016-04-21T20:35:23.986Z,101372
2016-04-21T20:35:36.767Z,101372
2016-04-21T20:35:49.767Z,101381
2016-04-21T20:36:02.689Z,101369
2016-04-21T20:36:15.442Z,101378
2016-04-21T20:36:28.426Z,101372
2016-04-21T20:36:41.223Z,101366
2016-04-21T20:36:54.192Z,101366
2016-04-21T20:37:07.176Z,101381
2016-04-21T20:37:19.914Z,101369
2016-04-21T20:37:32.836Z,101381
2016-04-21T20:37:45.898Z,101369
2016-04-21T20:37:58.711Z,101363
2016-04-21T20:38:11.525Z,101372
2016-04-21T20:38:24.556Z,101375
2016-04-21T20:38:37.369Z,101375
2016-04-21T20:38:50.135Z,101375
2016-04-21T20:39:03.150Z,101372
2016-04-21T20:39:15.997Z,101366
2016-04-21T20:39:28.919Z,101378
2016-04-21T20:39:41.638Z,101378
2016-04-21T20:39:54.638Z,101363
2016-04-21T20:40:07.606Z,101378
2016-04-21T20:40:20.391Z,101378
2016-04-21T20:40:33.328Z,101375
2016-04-21T20:40:46.281Z,101382
2016-04-21T20:40:59.406Z,101379
2016-04-21T20:41:12.253Z,101369
2016-04-21T20:41:25.284Z,101369
2016-04-21T20:41:38.065Z,101382
2016-04-21T20:41:50.909Z,101363
2016-04-21T20:42:03.815Z,101366
2016-04-21T20:42:16.802Z,101372
2016-04-21T20:42:29.786Z,101366
2016-04-21T20:42:42.567Z,101366
2016-04-21T20:42:55.427Z,101363
2016-04-21T20:43:08.489Z,101360
2016-04-21T20:43:21.274Z,101363
2016-04-21T20:43:34.070Z,101369
2016-04-21T20:43:47.133Z,101357
2016-04-21T20:43:59.914Z,101363
2016-04-21T20:44:12.745Z,101352
2016-04-21T20:44:25.714Z,101357
2016-04-21T20:44:38.667Z,101363
2016-04-21T20:44:51.480Z,101349
2016-04-21T20:45:04.433Z,101363
2016-04-21T20:45:17.186Z,101366
2016-04-21T20:45:30.201Z,101357
2016-04-21T20:45:43.201Z,101366
2016-04-21T20:45:57.405Z,101370
2016-04-21T20:46:10.311Z,101366
2016-04-21T20:46:23.298Z,101363
2016-04-21T20:46:36.111Z,101360
2016-04-21T20:46:48.954Z,101366
2016-04-21T20:47:01.970Z,101363
2016-04-21T20:48:05.128Z,101363
2016-04-21T20:48:17.974Z,101376
2016-04-21T20:48:30.990Z,101367
2016-04-21T20:48:43.740Z,101367
2016-04-21T20:48:56.677Z,101367
2016-04-21T20:49:09.662Z,101363
2016-04-21T20:49:22.461Z,101360
2016-04-21T20:49:35.243Z,101357
2016-04-21T20:49:49.149Z,101379
2016-04-21T20:50:01.946Z,101370
2016-04-21T21:03:05.231Z,101364
2016-04-21T21:03:21.687Z,101364
2016-04-21T21:03:36.718Z,101358
2016-04-21T21:03:51.874Z,101368
2016-04-21T21:04:08.796Z,101364
2016-04-21T21:04:22.799Z,101350
2016-04-21T21:04:35.627Z,101365
2016-04-21T21:04:48.690Z,101365
2016-04-21T21:05:01.487Z,101365
2016-04-21T21:05:14.270Z,101361
2016-04-21T21:05:27.270Z,101358
2016-04-21T21:05:40.161Z,101361
2016-04-21T21:05:52.989Z,101361
2016-04-21T21:06:05.942Z,101350
2016-04-21T21:06:18.945Z,101358
2016-04-21T21:06:31.898Z,101361
2016-04-21T21:06:44.789Z,101362
2016-04-21T21:06:57.586Z,101365
2016-04-21T21:07:10.664Z,101358
2016-04-21T21:07:24.714Z,101358
2016-04-21T21:07:41.229Z,101358
2016-04-21T21:07:59.745Z,101355
2016-04-21T21:08:15.700Z,101350
2016-04-21T21:08:29.934Z,101359
2016-04-21T21:08:43.622Z,101362
2016-04-21T21:08:56.934Z,101362
2016-04-21T21:09:09.872Z,101362
2016-04-21T21:09:22.937Z,101365
2016-04-21T21:09:37.609Z,101368
2016-04-21T21:09:52.109Z,101359
2016-04-21T21:10:06.844Z,101356
2016-04-21T21:10:20.503Z,101368
2016-04-21T21:10:33.659Z,101350
2016-04-21T21:10:46.503Z,101371
2016-04-21T21:10:59.300Z,101365
2016-04-21T21:11:12.287Z,101347
2016-04-21T21:11:25.506Z,101359
2016-04-21T21:11:38.256Z,101351
2016-04-21T21:11:51.318Z,101362
2016-04-21T21:12:04.318Z,101351
2016-04-21T21:12:17.352Z,101362
2016-04-21T21:12:32.977Z,101356
2016-04-21T21:12:45.883Z,101347
2016-04-21T21:12:58.852Z,101356
2016-04-21T21:13:11.761Z,101351
2016-04-21T21:13:24.667Z,101365
2016-04-21T21:13:37.636Z,101365
2016-04-21T21:13:50.620Z,101351
2016-04-21T21:14:03.542Z,101365
2016-04-21T21:14:17.139Z,101344
2016-04-21T21:14:33.108Z,101359
2016-04-21T21:14:48.264Z,101356
2016-04-21T21:15:02.514Z,101359
2016-04-21T21:15:15.531Z,101351
2016-04-21T21:15:28.344Z,101359
2016-04-21T21:15:41.406Z,101344
2016-04-21T21:15:55.516Z,101347
2016-04-21T21:16:08.313Z,101362
2016-04-21T21:16:21.378Z,101362
2016-04-21T21:16:34.284Z,101356
2016-04-21T21:16:47.097Z,101362
2016-04-21T21:17:00.081Z,101344
2016-04-21T21:17:13.084Z,101351
2016-04-21T21:17:25.881Z,101356
2016-04-21T21:17:38.928Z,101368
2016-04-21T21:17:51.928Z,101365
2016-04-21T21:18:04.772Z,101362
2016-04-21T21:18:17.619Z,101362
2016-04-21T21:18:30.494Z,101368
2016-04-21T21:18:43.478Z,101356
2016-04-21T21:18:56.525Z,101368
2016-04-21T21:19:11.509Z,101347
2016-04-21T21:19:24.605Z,101359
2016-04-21T21:19:37.902Z,101365
2016-04-21T21:19:50.683Z,101371
2016-04-21T21:20:03.621Z,101356
2016-04-21T21:20:16.592Z,101356
2016-04-21T21:20:29.405Z,101362
2016-04-21T21:20:42.217Z,101356
2016-04-21T21:20:55.061Z,101362
2016-04-21T21:21:08.124Z,101362
2016-04-21T21:34:18.927Z,101381
2016-04-21T21:34:34.068Z,101347
2016-04-21T21:34:48.052Z,101362
2016-04-21T21:35:01.255Z,101356
2016-04-21T21:35:14.070Z,101351
2016-04-21T21:35:26.867Z,101351
2016-04-21T21:35:39.898Z,101344
2016-04-21T21:35:52.710Z,101356
2016-04-21T21:36:05.570Z,101365
2016-04-21T21:36:18.495Z,101351
2016-04-21T21:36:31.495Z,101351
2016-04-21T21:36:44.307Z,101351
2016-04-21T21:36:57.167Z,101344
2016-04-21T21:37:10.198Z,101351
2016-04-21T21:37:22.998Z,101347
2016-04-21T21:37:36.123Z,101351
2016-04-21T21:37:49.326Z,101351
2016-04-21T21:38:02.185Z,101347
2016-04-21T21:38:16.640Z,101344
2016-04-21T21:38:30.375Z,101359
2016-04-21T21:38:44.406Z,101362
2016-04-21T21:38:58.343Z,101347
2016-04-21T21:39:11.468Z,101351
2016-04-21T21:39:24.815Z,101368
2016-04-21T21:39:38.721Z,101356
2016-04-21T21:39:52.096Z,101362
2016-04-21T21:40:05.253Z,101356
2016-04-21T21:40:19.318Z,101368
2016-04-21T21:40:33.506Z,101362
2016-04-21T21:40:46.599Z,101356
2016-04-21T21:40:59.787Z,101362
2016-04-21T21:41:13.351Z,101368
2016-04-21T21:41:26.148Z,101359
2016-04-21T21:41:39.195Z,101368
2016-04-21T21:41:52.101Z,101348
2016-04-21T21:42:05.164Z,101356
2016-04-21T21:42:17.948Z,101374
2016-04-21T21:42:30.917Z,101365
2016-04-21T21:42:44.495Z,101359
2016-04-21T21:42:57.339Z,101359
2016-04-21T21:43:10.167Z,101368
2016-04-21T21:43:23.153Z,101374
2016-04-21T21:43:36.106Z,101371
2016-04-21T21:43:48.856Z,101362
2016-04-21T21:44:01.856Z,101362
2016-04-21T21:44:14.828Z,101384
2016-04-21T21:44:27.625Z,101374
2016-04-21T21:44:40.625Z,101374
2016-04-21T21:44:53.375Z,101371
2016-04-21T21:45:06.297Z,101374
2016-04-21T21:45:19.284Z,101368
2016-04-21T21:45:32.081Z,101381
2016-04-21T21:45:44.925Z,101378
2016-04-21T21:45:59.550Z,101368
2016-04-21T21:46:12.347Z,101378
2016-04-21T21:46:25.162Z,101381
2016-04-21T21:46:38.209Z,101368
2016-04-21T21:46:51.084Z,101371
2016-04-21T21:47:03.850Z,101374
2016-04-21T21:47:16.758Z,101384
2016-04-21T21:47:29.789Z,101374
2016-04-21T21:47:42.758Z,101371
2016-04-21T21:47:55.524Z,101374
2016-04-21T21:48:08.774Z,101374
2016-04-21T21:48:23.589Z,101371
2016-04-21T21:48:36.995Z,101365
2016-04-21T21:48:49.855Z,101371
2016-04-21T21:49:03.714Z,101362
2016-04-21T21:49:17.077Z,101368
2016-04-21T21:49:29.952Z,101362
2016-04-21T21:49:43.983Z,101374
2016-04-21T21:49:57.358Z,101374
2016-04-21T21:50:11.483Z,101359
2016-04-21T21:50:24.876Z,101368
2016-04-21T21:50:37.908Z,101365
2016-04-21T21:50:51.986Z,101356
2016-04-21T21:51:05.501Z,101381
2016-04-21T21:51:18.269Z,101368
2016-04-21T21:51:31.988Z,101374
2016-04-21T21:51:45.113Z,101374
2016-04-21T22:03:55.646Z,101374
2016-04-21T22:05:05.367Z,101387
2016-04-21T22:05:18.713Z,101381
2016-04-21T22:05:31.916Z,101381
2016-04-21T22:05:45.010Z,101368
2016-04-21T22:05:58.807Z,101384
2016-04-21T22:06:11.557Z,101384
2016-04-21T22:06:24.591Z,101384
2016-04-21T22:06:37.435Z,101381
2016-04-21T22:06:50.232Z,101381
2016-04-21T22:07:04.419Z,101371
2016-04-21T22:07:20.421Z,101378
2016-04-21T22:07:34.125Z,101368
2016-04-21T22:07:47.265Z,101371
2016-04-21T22:08:00.281Z,101384
2016-04-21T22:08:13.878Z,101374
2016-04-21T22:08:26.815Z,101371
2016-04-21T22:08:39.846Z,101374
2016-04-21T22:08:54.893Z,101381
2016-04-21T22:09:09.315Z,101393
2016-04-21T22:09:24.256Z,101381
2016-04-21T22:09:37.849Z,101384
2016-04-21T22:09:51.709Z,101390
2016-04-21T22:10:04.521Z,101387
2016-04-21T22:10:18.087Z,101381
2016-04-21T22:10:31.009Z,101381
2016-04-21T22:10:43.805Z,101387
2016-04-21T22:10:56.774Z,101381
2016-04-21T22:11:09.759Z,101378
2016-04-21T22:11:23.120Z,101390
2016-04-21T22:11:35.901Z,101384
2016-04-21T22:11:49.370Z,101393
2016-04-21T22:12:03.448Z,101393
2016-04-21T22:12:16.170Z,101381
2016-04-21T22:12:29.123Z,101384
2016-04-21T22:12:42.076Z,101384
2016-04-21T22:12:54.810Z,101387
2016-04-21T22:13:07.748Z,101387
2016-04-21T22:13:20.923Z,101384
2016-04-21T22:13:33.673Z,101399
2016-04-21T22:13:46.610Z,101381
2016-04-21T22:13:59.470Z,101393
2016-04-21T22:14:12.501Z,101390
2016-04-21T22:14:25.347Z,101368
2016-04-21T22:14:38.144Z,101390
2016-04-21T22:14:53.956Z,101396
2016-04-21T22:15:06.753Z,101384
2016-04-21T22:15:19.583Z,101387
2016-04-21T22:15:32.567Z,101387
2016-04-21T22:15:45.474Z,101387
2016-04-21T22:15:59.302Z,101384
2016-04-21T22:16:12.567Z,101384
2016-04-21T22:16:25.539Z,101396
2016-04-21T22:16:38.852Z,101387
2016-04-21T22:16:51.711Z,101381
2016-04-21T22:17:04.508Z,101393
2016-04-21T22:17:17.714Z,101381
2016-04-21T22:17:30.667Z,101399
2016-04-21T22:17:43.448Z,101381
2016-04-21T22:17:56.448Z,101393
2016-04-21T22:18:09.402Z,101393
2016-04-21T22:18:22.342Z,101381
2016-04-21T22:18:35.498Z,101384
2016-04-21T22:18:48.951Z,101393
2016-04-21T22:19:01.733Z,101387
2016-04-21T22:19:14.845Z,101393
2016-04-21T22:19:27.798Z,101387
2016-04-21T22:19:40.642Z,101387
2016-04-21T22:19:53.689Z,101403
2016-04-21T22:20:06.501Z,101399
2016-04-21T22:20:19.285Z,101396
2016-04-21T22:20:32.597Z,101390
2016-04-21T22:20:45.425Z,101390
2016-04-21T22:20:58.222Z,101390
2016-04-21T22:21:11.175Z,101393
2016-04-21T22:21:24.115Z,101393
2016-04-21T22:21:36.865Z,101402
2016-04-21T22:21:49.818Z,101403
2016-04-21T22:22:03.662Z,101399
2016-04-21T22:22:16.493Z,101403
2016-04-21T22:22:29.321Z,101390
2016-04-21T22:34:35.229Z,101384
2016-04-21T22:35:46.090Z,101415
2016-04-21T22:35:59.106Z,101406
2016-04-21T22:36:11.965Z,101409
2016-04-21T22:36:25.546Z,101396
2016-04-21T22:36:38.562Z,101402
2016-04-21T22:36:52.593Z,101396
2016-04-21T22:37:05.437Z,101402
2016-04-21T22:37:18.377Z,101393
2016-04-21T22:37:32.471Z,101406
2016-04-21T22:37:45.471Z,101415
2016-04-21T22:37:58.284Z,101402
2016-04-21T22:38:11.252Z,101412
2016-04-21T22:38:24.334Z,101402
2016-04-21T22:38:37.084Z,101415
2016-04-21T22:38:49.849Z,101406
2016-04-21T22:39:02.896Z,101402
2016-04-21T22:39:15.665Z,101402
2016-04-21T22:39:32.008Z,101409
2016-04-21T22:39:45.102Z,101406
2016-04-21T22:39:57.899Z,101396
2016-04-21T22:40:10.962Z,101399
2016-04-21T22:40:23.745Z,101396
2016-04-21T22:40:36.604Z,101409
2016-04-21T22:40:49.620Z,101396
2016-04-21T22:41:02.417Z,101406
2016-04-21T22:41:15.248Z,101406
2016-04-21T22:41:28.357Z,101402
2016-04-21T22:41:41.217Z,101406
2016-04-21T22:41:54.060Z,101412
2016-04-21T22:42:07.201Z,101402
2016-04-21T22:42:20.140Z,101406
2016-04-21T22:42:33.031Z,101402
2016-04-21T22:42:46.031Z,101402
2016-04-21T22:42:58.859Z,101402
2016-04-21T22:43:11.875Z,101402
2016-04-21T22:43:24.909Z,101393
2016-04-21T22:43:37.862Z,101399
2016-04-21T22:43:50.784Z,101412
2016-04-21T22:44:03.768Z,101406
2016-04-21T22:44:17.225Z,101399
2016-04-21T22:44:30.256Z,101406
2016-04-21T22:44:43.850Z,101399
2016-04-21T22:44:56.818Z,101399
2016-04-21T22:45:11.006Z,101409
2016-04-21T22:45:24.039Z,101406
2016-04-21T22:45:36.898Z,101393
2016-04-21T22:45:50.617Z,101406
2016-04-21T22:46:03.648Z,101406
2016-04-21T22:46:16.917Z,101412
2016-04-21T22:46:29.730Z,101396
2016-04-21T22:46:42.761Z,101402
2016-04-21T22:46:55.589Z,101415
2016-04-21T22:47:08.401Z,101406
2016-04-21T22:47:21.373Z,101393
2016-04-21T22:47:34.295Z,101393
2016-04-21T22:47:47.045Z,101393
2016-04-21T22:48:00.045Z,101390
2016-04-21T22:48:13.029Z,101399
2016-04-21T22:48:25.876Z,101387
2016-04-21T22:48:38.923Z,101393
2016-04-21T22:48:51.689Z,101399
2016-04-21T22:49:04.798Z,101393
2016-04-21T22:49:17.863Z,101399
2016-04-21T22:49:30.691Z,101402
2016-04-21T22:49:44.222Z,101387
2016-04-21T22:49:57.409Z,101387
2016-04-21T22:50:10.269Z,101396
2016-04-21T22:50:23.303Z,101399
2016-04-21T22:50:39.959Z,101406
2016-04-21T22:50:52.787Z,101396
2016-04-21T22:51:05.584Z,101409
2016-04-21T22:51:18.586Z,101399
2016-04-21T22:51:31.430Z,101387
2016-04-21T22:51:50.336Z,101396
2016-04-21T22:52:23.152Z,101396
2016-04-21T22:52:36.011Z,101396
2016-04-21T22:52:49.027Z,101399
2016-04-21T22:53:01.871Z,101402
2016-04-21T22:53:14.652Z,101402
2016-04-21T22:53:30.327Z,101393
2016-04-21T23:05:44.874Z,101390
2016-04-21T23:05:57.812Z,101393
2016-04-21T23:06:10.781Z,101390
2016-04-21T23:06:23.518Z,101375
2016-04-21T23:06:36.502Z,101384
2016-04-21T23:07:45.254Z,101378
2016-04-21T23:07:58.629Z,101393
2016-04-21T23:08:11.629Z,101387
2016-04-21T23:08:24.601Z,101399
2016-04-21T23:08:37.367Z,101384
2016-04-21T23:08:52.054Z,101387
2016-04-21T23:09:10.695Z,101387
2016-04-21T23:09:23.698Z,101378
2016-04-21T23:09:36.588Z,101381
2016-04-21T23:09:49.917Z,101378
2016-04-21T23:10:02.932Z,101381
2016-04-21T23:10:16.090Z,101393
2016-04-21T23:10:29.075Z,101387
2016-04-21T23:10:41.887Z,101384
2016-04-21T23:10:54.840Z,101381
2016-04-21T23:11:07.856Z,101384
2016-04-21T23:11:20.640Z,101387
2016-04-21T23:11:33.625Z,101387
2016-04-21T23:11:46.703Z,101387
2016-04-21T23:11:59.437Z,101378
2016-04-21T23:12:12.422Z,101378
2016-04-21T23:12:25.518Z,101375
2016-04-21T23:12:38.393Z,101384
2016-04-21T23:12:51.284Z,101375
2016-04-21T23:13:04.128Z,101384
2016-04-21T23:13:17.177Z,101387
2016-04-21T23:13:30.114Z,101371
2016-04-21T23:13:42.942Z,101381
2016-04-21T23:13:55.958Z,101374
2016-04-21T23:14:08.786Z,101381
2016-04-21T23:14:21.601Z,101365
2016-04-21T23:14:34.648Z,101381
2016-04-21T23:14:47.945Z,101390
2016-04-21T23:15:01.305Z,101381
2016-04-21T23:15:14.664Z,101378
2016-04-21T23:15:27.434Z,101368
2016-04-21T23:15:40.449Z,101387
2016-04-21T23:15:54.371Z,101387
2016-04-21T23:16:07.340Z,101375
2016-04-21T23:16:20.325Z,101381
2016-04-21T23:16:33.356Z,101378
2016-04-21T23:16:49.169Z,101371
2016-04-21T23:17:03.106Z,101375
2016-04-21T23:17:22.906Z,101375
2016-04-21T23:17:40.906Z,101381
2016-04-21T23:17:56.734Z,101378
2016-04-21T23:18:11.984Z,101381
2016-04-21T23:18:26.409Z,101371
2016-04-21T23:18:39.362Z,101371
2016-04-21T23:18:52.159Z,101371
2016-04-21T23:19:04.987Z,101378
2016-04-21T23:19:18.006Z,101375
2016-04-21T23:19:30.787Z,101387
2016-04-21T23:19:43.569Z,101378
2016-04-21T23:19:56.600Z,101374
2016-04-21T23:20:09.444Z,101368
2016-04-21T23:20:22.228Z,101374
2016-04-21T23:20:35.181Z,101362
2016-04-21T23:20:48.118Z,101368
2016-04-21T23:21:00.853Z,101368
2016-04-21T23:21:17.590Z,101374
2016-04-21T23:21:31.543Z,101365
2016-04-21T23:21:45.309Z,101371
2016-04-21T23:21:59.543Z,101371
2016-04-21T23:22:13.809Z,101368
2016-04-21T23:22:27.905Z,101362
2016-04-21T23:22:42.108Z,101381
2016-04-21T23:22:55.873Z,101368
2016-04-21T23:23:09.858Z,101362
2016-04-21T23:23:24.220Z,101368
2016-04-21T23:23:37.189Z,101368
2016-04-21T23:23:50.236Z,101362
2016-04-21T23:24:04.392Z,101375
2016-04-21T23:24:17.332Z,101368
2016-04-21T23:24:30.144Z,101362
2016-04-21T23:24:43.175Z,101359
2016-04-21T23:36:47.723Z,101365
2016-04-21T23:37:00.535Z,101362
2016-04-21T23:37:13.332Z,101368
2016-04-21T23:37:26.351Z,101356
2016-04-21T23:38:35.213Z,101362
2016-04-21T23:38:48.057Z,101359
2016-04-21T23:39:01.120Z,101359
2016-04-21T23:39:15.198Z,101351
2016-04-21T23:39:28.466Z,101362
2016-04-21T23:39:42.716Z,101356
2016-04-21T23:39:55.607Z,101365
2016-04-21T23:40:08.591Z,101365
2016-04-21T23:40:21.406Z,101356
2016-04-21T23:40:34.218Z,101368
2016-04-21T23:40:47.250Z,101358
2016-04-21T23:41:00.000Z,101364
2016-04-21T23:41:12.765Z,101357
2016-04-21T23:41:25.784Z,101357
2016-04-21T23:41:38.628Z,101345
2016-04-21T23:41:51.378Z,101345
2016-04-21T23:42:04.253Z,101348
2016-04-21T23:42:17.209Z,101362
2016-04-21T23:42:30.209Z,101356
2016-04-21T23:42:42.927Z,101351
2016-04-21T23:42:55.849Z,101359
2016-04-21T23:43:08.818Z,101356
2016-04-21T23:43:21.586Z,101341
2016-04-21T23:43:34.445Z,101338
2016-04-21T23:43:47.586Z,101341
2016-04-21T23:44:00.351Z,101347
2016-04-21T23:44:13.101Z,101355
2016-04-21T23:44:26.073Z,101337
2016-04-21T23:44:38.870Z,101350
2016-04-21T23:44:51.807Z,101343
2016-04-21T23:45:04.573Z,101355
2016-04-21T23:45:17.310Z,101349
2016-04-21T23:45:30.264Z,101340
2016-04-21T23:45:42.967Z,101352
2016-04-21T23:45:56.654Z,101343
2016-04-21T23:46:09.607Z,101357
2016-04-21T23:46:22.392Z,101343
2016-04-21T23:46:35.157Z,101357
2016-04-21T23:46:48.063Z,101336
2016-04-21T23:47:00.938Z,101336
2016-04-21T23:47:13.626Z,101348
2016-04-21T23:47:26.550Z,101342
2016-04-21T23:47:39.284Z,101339
2016-04-21T23:47:52.253Z,101342
2016-04-21T23:48:05.112Z,101342
2016-04-21T23:48:17.834Z,101345
2016-04-21T23:48:30.631Z,101348
2016-04-21T23:48:43.553Z,101348
2016-04-21T23:48:56.303Z,101356
2016-04-21T23:49:09.100Z,101345
2016-04-21T23:49:22.071Z,101341
2016-04-21T23:49:34.837Z,101335
2016-04-21T23:49:47.556Z,101344
2016-04-21T23:50:00.525Z,101341
2016-04-21T23:50:13.337Z,101356
2016-04-21T23:50:26.293Z,101335
2016-04-21T23:50:39.028Z,101350
2016-04-21T23:50:51.778Z,101338
2016-04-21T23:51:04.746Z,101341
2016-04-21T23:51:17.514Z,101350
2016-04-21T23:51:30.233Z,101347
2016-04-21T23:51:43.186Z,101338
2016-04-21T23:51:55.967Z,101347
2016-04-21T23:53:08.662Z,101337
2016-04-21T23:53:22.992Z,101334
2016-04-21T23:53:35.914Z,101331
2016-04-21T23:53:48.873Z,101337
2016-04-21T23:54:02.199Z,101349
2016-04-21T23:54:15.277Z,101333
2016-04-21T23:54:28.311Z,101340
2016-04-21T23:54:41.139Z,101336
2016-04-21T23:54:54.124Z,101346
2016-04-21T23:55:07.077Z,101333
2016-04-21T23:55:19.861Z,101336
2016-04-21T23:55:34.369Z,101330
2016-04-21T23:55:47.447Z,101333
2016-04-21T23:56:00.306Z,101342
